Pagrindinis puslapis
METAR-TAF:

METAR-TAF

Oro uostai :

Nasau, Bahamos

platuma: 25-03N, ilguma: 077-28W, Aukštis: 3 m

Dabartinis oras

Ataskaita buvo paskelbta 57 minutes, ne 13:00 UTC
Ramus vėjas
Temperatūra 19°C
Drėgmė 88%
Slėgis 1021 hPa
Matomumas 10 km arba daugiau
Mažai debesys ne aukštis 4000 ft

METAR: MYNN 071300Z 00000KT 9999 FEW040 19/17 A3014

Laikas: 08:57 (13:57 UTC)

Prognozė

Ataskaita buvo paskelbta 3 valandos ir 7 minutes, ne 10:50 UTC
Prognozė galioja nuo 07 metu 12 UTC su 08 metu 12 UTC
Vėjas 2 kt nuo kintamojo kryptimis
Matomumas 10 km arba daugiau
Mažai debesys ne aukštis 4000 ft

TAF: MYNN 071050Z 0712/0812 VRB02KT 9999 FEW040

Orai ataskaitas ir orų prognozės (METAR, TAF).

turimą stotys yra geltonos ir raudonos taškus žemėlapyje.

Perkelti pele per norėdami pamatyti stoties vardą.

Tada spustelėkite, norėdami matyti oro stebėjimo ir prognozės.

Norėdami pakeisti žemėlapį: spustelėkite ant žalios mygtukų su juodo kryžiaus žemyn,; žalią mygtuką su brūkšneliu, jei norite nutolinti; arba žalių rodyklių gretimoms žemėlapius.


METAR-TAF: